sensor_id;sensor_type;location;lat;lon;timestamp;P1;durP1;ratioP1;P2;durP2;ratioP2
14342;SDS011;7255;53.596;9.960;2023-01-31T00:01:09;19.27;;;5.18;;
14342;SDS011;7255;53.596;9.960;2023-01-31T00:03:38;12.77;;;4.47;;
14342;SDS011;7255;53.596;9.960;2023-01-31T00:06:09;16.55;;;4.72;;
14342;SDS011;7255;53.596;9.960;2023-01-31T00:08:36;12.90;;;4.00;;
14342;SDS011;7255;53.596;9.960;2023-01-31T00:55:12;16.73;;;3.57;;
14342;SDS011;7255;53.596;9.960;2023-01-31T00:57:38;14.17;;;3.67;;
14342;SDS011;7255;53.596;9.960;2023-01-31T01:00:05;14.03;;;3.47;;
14342;SDS011;7255;53.596;9.960;2023-01-31T01:02:32;12.27;;;3.57;;
14342;SDS011;7255;53.596;9.960;2023-01-31T01:04:58;10.53;;;3.10;;
14342;SDS011;7255;53.596;9.960;2023-01-31T01:07:25;8.57;;;3.70;;
14342;SDS011;7255;53.596;9.960;2023-01-31T01:09:54;7.80;;;2.70;;
14342;SDS011;7255;53.596;9.960;2023-01-31T01:12:20;10.07;;;2.70;;
14342;SDS011;7255;53.596;9.960;2023-01-31T01:14:46;8.23;;;2.70;;
14342;SDS011;7255;53.596;9.960;2023-01-31T01:17:13;7.43;;;2.40;;
14342;SDS011;7255;53.596;9.960;2023-01-31T01:19:39;5.87;;;2.80;;
14342;SDS011;7255;53.596;9.960;2023-01-31T01:22:06;9.37;;;2.97;;
14342;SDS011;7255;53.596;9.960;2023-01-31T01:24:32;10.43;;;2.77;;
14342;SDS011;7255;53.596;9.960;2023-01-31T01:27:00;16.60;;;3.50;;
14342;SDS011;7255;53.596;9.960;2023-01-31T01:29:29;11.50;;;2.97;;
14342;SDS011;7255;53.596;9.960;2023-01-31T01:31:55;9.60;;;2.93;;
14342;SDS011;7255;53.596;9.960;2023-01-31T01:34:21;12.07;;;4.00;;
14342;SDS011;7255;53.596;9.960;2023-01-31T01:36:48;13.73;;;3.17;;
14342;SDS011;7255;53.596;9.960;2023-01-31T01:39:14;16.33;;;4.07;;
14342;SDS011;7255;53.596;9.960;2023-01-31T01:41:42;12.63;;;3.23;;
14342;SDS011;7255;53.596;9.960;2023-01-31T01:47:11;15.53;;;3.63;;
14342;SDS011;7255;53.596;9.960;2023-01-31T01:49:42;19.90;;;4.77;;
14342;SDS011;7255;53.596;9.960;2023-01-31T01:52:11;18.70;;;4.33;;
14342;SDS011;7255;53.596;9.960;2023-01-31T01:54:42;18.23;;;4.07;;
14342;SDS011;7255;53.596;9.960;2023-01-31T02:33:30;23.52;;;5.32;;
14342;SDS011;7255;53.596;9.960;2023-01-31T02:36:07;20.75;;;5.40;;
14342;SDS011;7255;53.596;9.960;2023-01-31T02:38:47;21.20;;;5.45;;
14342;SDS011;7255;53.596;9.960;2023-01-31T02:41:25;19.95;;;4.82;;
14342;SDS011;7255;53.596;9.960;2023-01-31T02:43:59;21.10;;;5.05;;
14342;SDS011;7255;53.596;9.960;2023-01-31T02:46:52;17.87;;;4.55;;
14342;SDS011;7255;53.596;9.960;2023-01-31T02:49:26;17.08;;;4.45;;
14342;SDS011;7255;53.596;9.960;2023-01-31T02:52:05;17.92;;;4.47;;
14342;SDS011;7255;53.596;9.960;2023-01-31T02:54:41;15.05;;;4.30;;
14342;SDS011;7255;53.596;9.960;2023-01-31T02:57:32;18.42;;;4.10;;
14342;SDS011;7255;53.596;9.960;2023-01-31T03:00:00;16.10;;;4.30;;
14342;SDS011;7255;53.596;9.960;2023-01-31T03:02:29;14.48;;;4.20;;
14342;SDS011;7255;53.596;9.960;2023-01-31T03:04:59;14.85;;;3.85;;
14342;SDS011;7255;53.596;9.960;2023-01-31T03:07:25;14.52;;;4.10;;
14342;SDS011;7255;53.596;9.960;2023-01-31T03:09:59;15.50;;;4.18;;
14342;SDS011;7255;53.596;9.960;2023-01-31T03:12:35;15.93;;;3.97;;
14342;SDS011;7255;53.596;9.960;2023-01-31T03:15:17;17.37;;;3.90;;
14342;SDS011;7255;53.596;9.960;2023-01-31T03:18:12;15.18;;;3.78;;
14342;SDS011;7255;53.596;9.960;2023-01-31T23:07:05;26.48;;;7.25;;
14342;SDS011;7255;53.596;9.960;2023-01-31T23:12:01;23.83;;;5.47;;
14342;SDS011;7255;53.596;9.960;2023-01-31T23:14:27;30.75;;;7.10;;
14342;SDS011;7255;53.596;9.960;2023-01-31T23:16:53;25.23;;;6.97;;
14342;SDS011;7255;53.596;9.960;2023-01-31T23:19:37;30.27;;;6.30;;
14342;SDS011;7255;53.596;9.960;2023-01-31T23:22:03;29.93;;;7.73;;
14342;SDS011;7255;53.596;9.960;2023-01-31T23:24:31;23.70;;;6.00;;
14342;SDS011;7255;53.596;9.960;2023-01-31T23:26:59;29.45;;;7.37;;
14342;SDS011;7255;53.596;9.960;2023-01-31T23:29:25;29.30;;;7.37;;
14342;SDS011;7255;53.596;9.960;2023-01-31T23:31:51;27.48;;;7.35;;
14342;SDS011;7255;53.596;9.960;2023-01-31T23:34:17;24.73;;;7.00;;
14342;SDS011;7255;53.596;9.960;2023-01-31T23:36:44;27.67;;;7.80;;
14342;SDS011;7255;53.596;9.960;2023-01-31T23:39:10;22.45;;;6.90;;
14342;SDS011;7255;53.596;9.960;2023-01-31T23:41:37;23.70;;;6.67;;
14342;SDS011;7255;53.596;9.960;2023-01-31T23:44:04;18.67;;;5.20;;
14342;SDS011;7255;53.596;9.960;2023-01-31T23:46:30;23.53;;;5.80;;
14342;SDS011;7255;53.596;9.960;2023-01-31T23:48:56;21.93;;;4.87;;
14342;SDS011;7255;53.596;9.960;2023-01-31T23:51:22;28.17;;;5.57;;
14342;SDS011;7255;53.596;9.960;2023-01-31T23:53:50;14.10;;;4.83;;
14342;SDS011;7255;53.596;9.960;2023-01-31T23:56:16;21.40;;;5.77;;
14342;SDS011;7255;53.596;9.960;2023-01-31T23:58:44;25.30;;;5.53;;
